• Join FlightAware (Why Join?)
  • Login
  • US Flag 
12:34AM EDT


 

Airport Tracker/Info


-or-


 

Live Flight TrackerFlight Track Log ✈ UAL70 ✈ 17-Apr-2013 ✈ KEWR - EHAM / AMS

Flight Track Log - Related Links

Times and Time Zones

All times are in EDT time to prevent confusion due to time zone crossing. See the UAL70 flight status page for this flight to view local times or setup timezone preferences in your user account.

Time Position Orientation Groundspeed Altitude Reporting Facility
EDT Latitude Longitude Course Direction KTS MPH feet Rate Location/Type
06:21PM 40.7347 -74.1205 41° Northeast 195 224 1,900  Level FlightAware ADS-B
06:22PM 40.7417 -74.1154 29° Northeast 207 238 2,100 1,740 Climbing FlightAware ADS-B
06:22PM 40.7553 -74.1066 26° Northeast 220 253 2,600 2,160 Climbing FlightAware ADS-B
06:22PM 40.7699 -74.0977 25° Northeast 231 266 3,200 2,040 Climbing FlightAware ADS-B
06:22PM 40.7809 -74.0908 25° Northeast 244 281 3,500 2,040 Climbing FlightAware ADS-B
06:23PM 40.8063 -74.0736 27° Northeast 260 299 4,400 2,520 Climbing FlightAware ADS-B
06:23PM 40.8182 -74.0654 28° Northeast 267 307 5,000 2,760 Climbing FlightAware ADS-B
06:23PM 40.8384 -74.0506 29° Northeast 273 314 5,800 2,580 Climbing FlightAware ADS-B
06:23PM 40.8430 -74.0467 33° Northeast 273 314 6,000 3,660 Climbing FlightAware ADS-B
06:23PM 40.8518 -74.0360 43° Northeast 276 318 6,600 3,420 Climbing FlightAware ADS-B
06:23PM 40.8556 -74.0295 52° Northeast 280 322 6,800 2,400 Climbing FlightAware ADS-B
06:24PM 40.8593 -74.0221 57° Northeast 285 328 7,000 1,980 Climbing FlightAware ADS-B
06:24PM 40.8616 -74.0173 58° Northeast 287 330 7,100 2,220 Climbing FlightAware ADS-B
06:24PM 40.8643 -74.0104 63° Northeast 292 336 7,300 1,980 Climbing FlightAware ADS-B
06:24PM 40.8685 -73.9979 66° East 299 344 7,500 1,560 Climbing FlightAware ADS-B
06:24PM 40.8760 -73.9715 69° East 305 351 7,900 2,400 Climbing FlightAware ADS-B
06:24PM 40.8829 -73.9449 71° East 303 349 8,700 2,880 Climbing FlightAware ADS-B
06:25PM 40.8901 -73.9169 71° East 309 356 9,400 1,440 Climbing FlightAware ADS-B
06:26PM 40.9270 -73.8140 65° Northeast 349 402 10,500 1,620 Climbing FlightAware
06:26PM 40.9770 -73.7390 49° Northeast 365 420 12,300 2,400 Climbing FlightAware
06:27PM 41.0270 -73.6640 49° Northeast 373 429 14,100 2,520 Climbing FlightAware ADS-B
06:28PM 41.0740 -73.5940 48° Northeast 376 433 15,900 2,520 Climbing FlightAware
06:28PM 41.1161 -73.5305 49° Northeast 376 433 17,400 2,220 Climbing FlightAware ADS-B
06:29PM 41.1680 -73.4530 48° Northeast 389 448 18,900 1,860 Climbing FlightAware
06:30PM 41.2110 -73.3870 49° Northeast 396 456 20,100 1,800 Climbing FlightAware
06:31PM 41.2740 -73.2930 48° Northeast 398 458 21,800 1,860 Climbing FlightAware
06:31PM 41.3380 -73.1960 49° Northeast 415 478 23,200 1,620 Climbing FlightAware
06:32PM 41.3910 -73.1060 52° Northeast 432 497 24,300 1,560 Climbing FlightAware
06:33PM 41.4510 -72.9750 59° Northeast 444 511 25,800 1,320 Climbing FlightAware
06:34PM 41.4990 -72.8650 60° Northeast 445 512 26,700 1,260 Climbing FlightAware
06:35PM 41.5510 -72.7460 60° Northeast 467 537 27,800 1,380 Climbing FlightAware
06:35PM 41.6000 -72.6340 60° Northeast 473 544 28,800 1,320 Climbing FlightAware
06:36PM 41.6240 -72.5780 60° Northeast 29,500 1,320 Climbing FlightAware
06:37PM 41.6930 -72.4240 59° Northeast 477 549 30,700 1,680 Climbing FlightAware
06:37PM 41.7360 -72.3300 58° Northeast 470 541 31,800 1,680 Climbing FlightAware
06:38PM 41.7780 -72.2360 59° Northeast 33,300 1,620 Climbing FlightAware
06:39PM 41.8270 -72.1080 63° Northeast 466 536 34,300 1,020 Climbing FlightAware
06:40PM 41.8630 -71.9820 69° East 465 535 35,000 480 Climbing FlightAware
06:40PM 41.8940 -71.8790 68° East 464 534 35,000  Level FlightAware
06:41PM 41.9417 -71.7256 68° East 460 529 35,000  Level Boston Center
06:42PM 41.9886 -71.5631 69° East 460 529 35,000  Level Boston Center
06:48PM 42.2660 -70.5460 69° East 476 548 35,000  Level FlightAware
06:49PM 42.2950 -70.4370 70° East 475 547 35,000  Level FlightAware
06:50PM 42.3290 -70.3100 70° East 477 549 35,000  Level FlightAware
06:51PM 42.3580 -70.1990 70° East 478 550 35,000  Level FlightAware
06:51PM 42.3880 -70.0870 70° East 480 552 35,000  Level FlightAware
06:52PM 42.4220 -69.9570 70° East 483 556 35,000  Level FlightAware
06:53PM 42.4510 -69.8450 71° East 484 557 35,000  Level FlightAware
06:53PM 42.4850 -69.7150 70° East 486 559 35,000  Level FlightAware
06:54PM 42.5110 -69.6160 70° East 487 560 35,000  Level FlightAware
06:55PM 42.5460 -69.4830 70° East 487 560 35,000  Level FlightAware
06:56PM 42.5900 -69.3080 71° East 486 559 35,000  Level FlightAware
06:56PM 42.6210 -69.1890 70° East 482 555 35,000  Level FlightAware
06:57PM 42.6560 -69.0480 71° East 482 555 35,000  Level FlightAware
06:58PM 42.6900 -68.9150 71° East 483 556 35,000  Level FlightAware
06:59PM 42.7140 -68.8120 72° East 483 556 35,000  Level FlightAware
06:59PM 42.7380 -68.7140 72° East 483 556 35,000  Level FlightAware
07:00PM 42.7780 -68.5590 71° East 482 555 35,000  Level FlightAware
07:01PM 42.8130 -68.4170 71° East 481 554 35,000  Level FlightAware
07:02PM 42.8530 -68.2550 71° East 476 548 35,000  Level FlightAware
07:02PM 42.8740 -68.1670 72° East 476 548 35,000  Level FlightAware
07:03PM 42.9080 -68.0280 71° East 474 545 35,000  Level FlightAware
07:04PM 42.9390 -67.9000 72° East 471 542 35,000  Level FlightAware
07:04PM 42.9620 -67.8030 72° East 469 540 35,000  Level FlightAware
07:05PM 42.9940 -67.6680 72° East 469 540 35,000  Level FlightAware
07:06PM 43.0220 -67.5500 72° East 467 537 35,000  Level FlightAware
07:07PM 43.0490 -67.4370 72° East 464 534 35,000  Level FlightAware
07:07PM 43.0750 -67.3250 72° East 464 534 35,000  Level FlightAware
07:08PM 43.1050 -67.1970 72° East 464 534 35,000  Level FlightAware
07:09PM 43.1340 -67.0710 72° East 466 536 35,000  Level FlightAware
07:09PM 43.1650 -66.9600 69° East 460 529 35,000  Level FlightAware
07:10PM 43.1990 -66.8580 65° Northeast 460 529 35,000 -480 Level FlightAware
07:11PM 43.2430 -66.7580 59° Northeast 457 526 34,400 -1,200 Descending FlightAware
07:12PM 43.2900 -66.6390 61° Northeast 445 512 33,400 -1,560 Descending FlightAware
07:12PM 43.3310 -66.5320 62° Northeast 438 504 32,100 -1,740 Descending FlightAware
07:13PM 43.3710 -66.4300 62° Northeast 442 509 31,000 -780 Descending FlightAware
07:14PM 43.4140 -66.3210 61° Northeast 454 522 31,000  Level FlightAware
07:14PM 43.4530 -66.2190 62° Northeast 459 528 31,000  Level FlightAware
07:15PM 43.4930 -66.1140 62° Northeast 459 528 31,000  Level FlightAware
07:16PM 43.5380 -65.9950 62° Northeast 460 529 31,000  Level FlightAware
07:16PM 43.5770 -65.8920 62° Northeast 461 531 31,000  Level FlightAware
07:17PM 43.6220 -65.7740 62° Northeast 462 532 31,000  Level FlightAware
07:18PM 43.6620 -65.6690 62° Northeast 462 532 31,000  Level FlightAware
07:19PM 43.7010 -65.5640 63° Northeast 462 532 31,000  Level FlightAware
07:19PM 43.7440 -65.4490 63° Northeast 463 533 31,000  Level FlightAware
07:20PM 43.7850 -65.3410 62° Northeast 466 536 31,000  Level FlightAware
07:21PM 43.8230 -65.2380 63° Northeast 468 539 31,000  Level FlightAware
07:21PM 43.8680 -65.1160 63° Northeast 469 540 31,000  Level FlightAware
07:22PM 43.9070 -65.0100 63° Northeast 471 542 31,000  Level FlightAware
07:23PM 43.9510 -64.8910 63° Northeast 473 544 31,000  Level FlightAware
07:23PM 43.9920 -64.7780 63° Northeast 474 545 31,000  Level FlightAware
07:24PM 44.0300 -64.6730 63° Northeast 473 544 31,000  Level FlightAware
07:25PM 44.0690 -64.5660 63° Northeast 477 549 31,000  Level FlightAware
07:25PM 44.1060 -64.4650 63° Northeast 477 549 31,000  Level FlightAware
07:26PM 44.1680 -64.2910 64° Northeast 478 550 31,000  Level FlightAware
07:27PM 44.2070 -64.1840 63° Northeast 478 550 31,000  Level FlightAware
07:28PM 44.2410 -64.0900 63° Northeast 478 550 31,000  Level FlightAware
07:29PM 44.2750 -63.9960 63° Northeast 478 550 31,000 660 Level FlightAware
07:29PM 44.3340 -63.8220 65° Northeast 473 544 32,000 1,200 Climbing FlightAware
07:30PM 44.3740 -63.7080 64° Northeast 478 550 32,700 1,020 Climbing FlightAware
07:31PM 44.4170 -63.5870 64° Northeast 482 555 33,500 720 Climbing FlightAware
07:32PM 44.4690 -63.4380 64° Northeast 484 557 33,900 240 Climbing FlightAware
07:32PM 44.5020 -63.3420 64° Northeast 484 557 33,900 720 Level FlightAware
07:33PM 44.5540 -63.1890 64° Northeast 486 559 35,000 780 Climbing FlightAware
07:34PM 44.5860 -63.0980 64° Northeast 486 559 35,000  Level FlightAware
07:34PM 44.6200 -63.0010 64° Northeast 486 559 35,000  Level FlightAware
07:35PM 44.6620 -62.8810 64° Northeast 486 559 35,000  Level FlightAware
07:36PM 44.6950 -62.7840 64° Northeast 486 559 35,000  Level FlightAware
07:36PM 44.7290 -62.6870 64° Northeast 486 559 35,000  Level FlightAware
07:37PM 44.7620 -62.5900 64° Northeast 486 559 35,000  Level FlightAware
07:38PM 44.8040 -62.4690 64° Northeast 486 559 35,000  Level FlightAware
07:39PM 44.8370 -62.3730 64° Northeast 486 559 35,000  Level FlightAware
07:39PM 44.8710 -62.2760 64° Northeast 486 559 35,000  Level FlightAware
07:40PM 44.9050 -62.1790 64° Northeast 486 559 35,000  Level FlightAware
07:41PM 44.9380 -62.0820 64° Northeast 486 559 35,000  Level FlightAware
07:41PM 44.9800 -61.9600 64° Northeast 486 559 35,000  Level FlightAware
07:42PM 45.0130 -61.8630 64° Northeast 486 559 35,000  Level FlightAware
07:43PM 45.0470 -61.7660 64° Northeast 486 559 35,000  Level FlightAware
07:45PM 45.2510 -61.0850 67° East 492 566 35,000  Level FlightAware
07:46PM 45.2860 -60.9730 66° East 494 568 35,000  Level FlightAware
07:46PM 45.3240 -60.8540 66° East 492 566 35,000  Level FlightAware
07:47PM 45.3670 -60.7170 66° East 491 565 35,000  Level FlightAware
07:48PM 45.4040 -60.5990 66° East 490 564 35,000  Level FlightAware
07:48PM 45.4440 -60.4710 66° East 487 560 35,000  Level FlightAware
07:49PM 45.4800 -60.3540 66° East 485 558 35,000  Level FlightAware
07:50PM 45.5160 -60.2360 66° East 484 557 35,000  Level FlightAware
07:51PM 45.5560 -60.1070 66° East 485 558 35,000  Level FlightAware
07:51PM 45.5920 -59.9890 66° East 486 559 35,000  Level FlightAware
07:52PM 45.6280 -59.8710 66° East 484 557 35,000  Level FlightAware
07:53PM 45.6680 -59.7370 67° East 486 559 35,000  Level FlightAware
07:53PM 45.7040 -59.6180 67° East 490 564 35,000  Level FlightAware
07:54PM 45.7430 -59.4860 67° East 491 565 35,000  Level FlightAware
07:55PM 45.7790 -59.3670 67° East 493 567 35,000  Level FlightAware
07:55PM 45.8150 -59.2460 67° East 494 568 35,000  Level FlightAware
07:56PM 45.8560 -59.1060 67° East 493 567 35,000  Level FlightAware
07:57PM 45.8910 -58.9880 67° East 495 570 35,000  Level FlightAware
07:58PM 45.9300 -58.8540 67° East 497 572 35,000  Level FlightAware
07:58PM 45.9660 -58.7300 67° East 500 575 35,000  Level FlightAware
07:59PM 46.0010 -58.6080 68° East 501 577 35,000  Level FlightAware
08:00PM 46.0410 -58.4690 67° East 501 577 35,000  Level FlightAware
08:01PM 46.0880 -58.3030 68° East 502 578 35,000  Level FlightAware
08:01PM 46.1200 -58.1950 67° East 502 578 35,000  Level FlightAware
08:02PM 46.1620 -58.0480 68° East 503 579 35,000  Level FlightAware
08:03PM 46.1930 -57.9430 67° East 503 579 35,000  Level FlightAware
08:03PM 46.2230 -57.8380 68° East 503 579 35,000  Level FlightAware
08:04PM 46.2540 -57.7320 67° East 503 579 35,000  Level FlightAware
08:05PM 46.2930 -57.6010 67° East 503 579 35,000  Level FlightAware
08:06PM 46.3530 -57.3580 70° East 503 579 35,000  Level FlightAware
08:06PM 46.3820 -57.2510 69° East 503 579 35,000  Level FlightAware
08:07PM 46.4260 -57.0870 69° East 506 582 35,000  Level FlightAware
08:08PM 46.4660 -56.9390 69° East 510 587 35,000  Level FlightAware
08:08PM 46.5010 -56.8110 68° East 513 590 35,000  Level FlightAware
08:09PM 46.5370 -56.6700 70° East 515 593 35,000  Level FlightAware
08:10PM 46.5700 -56.5380 70° East 516 594 35,000  Level FlightAware
08:11PM 46.6060 -56.3920 70° East 519 597 35,000  Level FlightAware
08:11PM 46.6400 -56.2570 70° East 520 598 35,000  Level FlightAware
08:12PM 46.6720 -56.1280 70° East 522 601 35,000  Level FlightAware
08:13PM 46.7080 -55.9820 70° East 523 602 35,000  Level FlightAware
08:13PM 46.7410 -55.8470 70° East 524 603 35,000  Level FlightAware
08:14PM 46.7720 -55.7190 70° East 524 603 35,000 420 Level FlightAware
08:15PM 46.8100 -55.5640 70° East 519 597 35,600 660 Climbing FlightAware
08:15PM 46.8410 -55.4340 71° East 522 601 36,000 240 Climbing FlightAware
08:16PM 46.8760 -55.2860 71° East 518 596 36,000  Level FlightAware
08:17PM 46.9080 -55.1520 71° East 512 589 36,000  Level FlightAware
08:18PM 46.9430 -55.0050 71° East 511 588 36,000  Level FlightAware
08:18PM 46.9740 -54.8710 71° East 510 587 36,000  Level FlightAware
08:19PM 47.0040 -54.7420 71° East 505 581 36,000  Level FlightAware
08:20PM 47.0360 -54.6020 71° East 505 581 36,000  Level FlightAware
08:20PM 47.0650 -54.4740 72° East 506 582 36,000  Level FlightAware
08:21PM 47.1010 -54.3200 71° East 510 587 36,000  Level FlightAware
08:22PM 47.1300 -54.1880 72° East 511 588 36,000  Level FlightAware
08:22PM 47.1600 -54.0590 71° East 513 590 36,000  Level FlightAware
08:23PM 47.1920 -53.9130 72° East 514 592 36,000  Level FlightAware
08:24PM 47.2220 -53.7790 72° East 517 595 36,000  Level FlightAware
08:25PM 47.2560 -53.6270 72° East 518 596 36,000  Level FlightAware
08:25PM 47.2850 -53.4900 73° East 517 595 36,000  Level FlightAware
08:26PM 47.3140 -53.3580 72° East 518 596 36,000  Level FlightAware
08:27PM 47.3470 -53.2080 72° East 517 595 36,000  Level FlightAware
08:27PM 47.3750 -53.0760 73° East 514 592 36,000  Level FlightAware
08:28PM 47.4070 -52.9260 72° East 516 594 36,000  Level FlightAware
08:29PM 47.4370 -52.7870 72° East 515 593 36,000  Level FlightAware
08:29PM 47.4650 -52.6510 73° East 515 593 36,000  Level FlightAware
08:30PM 47.4950 -52.5060 73° East 515 593 36,000  Level FlightAware
08:31PM 47.5240 -52.3700 72° East 518 596 36,000  Level FlightAware
08:32PM 47.5520 -52.2340 73° East 519 597 36,000  Level FlightAware
08:32PM 47.5820 -52.0830 74° East 517 595 36,000  Level FlightAware
08:33PM 47.6100 -51.9490 73° East 518 596 36,000  Level FlightAware
08:34PM 47.6420 -51.7900 73° East 518 596 36,000  Level FlightAware
08:34PM 47.6690 -51.6550 73° East 519 597 36,000  Level FlightAware
08:35PM 47.6980 -51.5080 74° East 518 596 36,000  Level FlightAware
08:36PM 47.7230 -51.3780 74° East 516 594 36,000  Level FlightAware
08:36PM 47.7500 -51.2410 74° East 517 595 36,000  Level FlightAware
08:37PM 47.7800 -51.0900 73° East 514 592 36,000  Level FlightAware
08:38PM 47.8060 -50.9520 74° East 515 593 36,000  Level FlightAware
08:39PM 47.8370 -50.7880 74° East 516 594 36,000  Level FlightAware
08:39PM 47.8570 -50.6840 74° East 516 594 36,000  Level FlightAware
08:40PM 47.8910 -50.5020 74° East 514 592 36,000  Level FlightAware
08:42PM 47.9480 -50.1940 74° East 514 592 36,000  Level FlightAware
08:42PM 48.0000 -49.9500 74° East 520 598 36,000  Level Gander Center
08:43PM 48.0000 -49.9000 90° East 520 598 36,000  Level Gander Center
08:43PM 48.0333 -49.7333 73° East 510 587 36,000  Level Gander Center
08:44PM 48.0833 -49.5167 71° East 510 587 36,000  Level Gander Center
08:45PM 48.1333 -49.3333 68° East 520 598 36,000  Level Gander Center
08:46PM 48.1333 -49.2833 90° East 510 587 36,000  Level Gander Center
08:46PM 48.1667 -49.1167 73° East 520 598 36,000  Level Gander Center
08:47PM 48.2167 -48.9333 68° East 520 598 36,000  Level Gander Center
08:48PM 48.2667 -48.7167 71° East 520 598 36,000  Level Gander Center
08:49PM 48.3167 -48.5333 68° East 520 598 36,000  Level Gander Center
08:50PM 48.3500 -48.3167 77° East 520 598 36,000  Level Gander Center
08:51PM 48.3833 -48.2500 53° Northeast 520 598 36,000  Level Gander Center
08:51PM 48.4167 -48.1000 71° East 520 598 36,000  Level Gander Center
08:52PM 48.4500 -47.9000 76° East 520 598 36,000  Level Gander Center
08:53PM 48.4667 -47.8500 63° Northeast 520 598 36,000  Level Gander Center
08:54PM 48.5000 -47.6333 77° East 520 598 36,000  Level Gander Center
08:55PM 48.5500 -47.4500 68° East 520 598 36,000  Level Gander Center
08:56PM 48.6500 -47.0833 67° East 520 598 36,000  Level Gander Center
08:57PM 48.6500 -47.0333 90° East 520 598 36,000  Level Gander Center
08:58PM 48.7000 -46.8167 71° East 520 598 36,000  Level Gander Center
08:59PM 48.7333 -46.6500 73° East 520 598 36,000  Level Gander Center
09:01PM 48.8427 -46.3253 71° East  Level FlightAware Approximate
09:08PM 49.1313 -44.9623 73° East  Level FlightAware Approximate
09:09PM 49.1701 -44.7657 73° East  Level FlightAware Approximate
09:10PM 49.2085 -44.5689 73° East  Level FlightAware Approximate
09:11PM 49.2466 -44.3717 73° East  Level FlightAware Approximate
09:12PM 49.2844 -44.1743 74° East  Level FlightAware Approximate
09:13PM 49.3218 -43.9766 74° East  Level FlightAware Approximate
09:14PM 49.3590 -43.7785 74° East  Level FlightAware Approximate
09:15PM 49.3957 -43.5802 74° East  Level FlightAware Approximate
09:16PM 49.4321 -43.3815 74° East  Level FlightAware Approximate
09:17PM 49.4684 -43.1827 74° East  Level FlightAware Approximate
09:18PM 49.5046 -42.9836 74° East  Level FlightAware Approximate
09:19PM 49.5404 -42.7843 74° East  Level FlightAware Approximate
09:20PM 49.5759 -42.5846 75° East  Level FlightAware Approximate
09:21PM 49.6110 -42.3847 75° East  Level FlightAware Approximate
09:22PM 49.6458 -42.1845 75° East  Level FlightAware Approximate
09:23PM 49.6803 -41.9840 75° East  Level FlightAware Approximate
09:24PM 49.7144 -41.7832 75° East  Level FlightAware Approximate
09:25PM 49.7481 -41.5822 75° East  Level FlightAware Approximate
09:26PM 49.7815 -41.3808 76° East  Level FlightAware Approximate
09:27PM 49.8146 -41.1792 76° East  Level FlightAware Approximate
09:28PM 49.8473 -40.9773 76° East  Level FlightAware Approximate
09:29PM 49.8796 -40.7752 76° East  Level FlightAware Approximate
09:30PM 49.9116 -40.5727 76° East  Level FlightAware Approximate
09:31PM 49.9432 -40.3700 76° East  Level FlightAware Approximate
09:32PM 49.9745 -40.1671 76° East  Level FlightAware Approximate
09:33PM 50.0053 -39.9638 77° East  Level FlightAware Approximate
09:34PM 50.0347 -39.7599 77° East  Level FlightAware Approximate
09:35PM 50.0638 -39.5558 77° East  Level FlightAware Approximate
09:36PM 50.0925 -39.3514 78° East  Level FlightAware Approximate
09:37PM 50.1209 -39.1468 78° East  Level FlightAware Approximate
09:38PM 50.1489 -38.9419 78° East  Level FlightAware Approximate
09:39PM 50.1766 -38.7368 78° East  Level FlightAware Approximate
09:40PM 50.2039 -38.5314 78° East  Level FlightAware Approximate
09:41PM 50.2308 -38.3259 78° East  Level FlightAware Approximate
09:42PM 50.2574 -38.1201 79° East  Level FlightAware Approximate
09:43PM 50.2836 -37.9141 79° East  Level FlightAware Approximate
09:44PM 50.3094 -37.7078 79° East  Level FlightAware Approximate
09:45PM 50.3349 -37.5013 79° East  Level FlightAware Approximate
09:46PM 50.3600 -37.2946 79° East  Level FlightAware Approximate
09:47PM 50.3847 -37.0877 79° East  Level FlightAware Approximate
09:48PM 50.4091 -36.8806 79° East  Level FlightAware Approximate
09:49PM 50.4331 -36.6732 80° East  Level FlightAware Approximate
09:50PM 50.4567 -36.4657 80° East  Level FlightAware Approximate
09:51PM 50.4800 -36.2579 80° East  Level FlightAware Approximate
09:52PM 50.5028 -36.0499 80° East  Level FlightAware Approximate
09:53PM 50.5254 -35.8418 80° East  Level FlightAware Approximate
09:54PM 50.5475 -35.6334 80° East  Level FlightAware Approximate
09:55PM 50.5693 -35.4249 81° East  Level FlightAware Approximate
09:56PM 50.5907 -35.2161 81° East  Level FlightAware Approximate
09:57PM 50.6117 -35.0072 81° East  Level FlightAware Approximate
09:58PM 50.6324 -34.7981 81° East  Level FlightAware Approximate
09:59PM 50.6527 -34.5888 81° East  Level FlightAware Approximate
10:00PM 50.6726 -34.3793 81° East  Level FlightAware Approximate
10:01PM 50.6921 -34.1697 82° East  Level FlightAware Approximate
10:02PM 50.7113 -33.9598 82° East  Level FlightAware Approximate
10:03PM 50.7301 -33.7498 82° East  Level FlightAware Approximate
10:04PM 50.7485 -33.5397 82° East  Level FlightAware Approximate
10:05PM 50.7665 -33.3293 82° East  Level FlightAware Approximate
10:06PM 50.7841 -33.1189 82° East  Level FlightAware Approximate
10:07PM 50.8014 -32.9082 83° East  Level FlightAware Approximate
10:08PM 50.8183 -32.6974 83° East  Level FlightAware Approximate
10:09PM 50.8348 -32.4865 83° East  Level FlightAware Approximate
10:10PM 50.8509 -32.2753 83° East  Level FlightAware Approximate
10:11PM 50.8667 -32.0641 83° East  Level FlightAware Approximate
10:12PM 50.8820 -31.8527 83° East  Level FlightAware Approximate
10:13PM 50.8970 -31.6412 84° East  Level FlightAware Approximate
10:14PM 50.9116 -31.4296 84° East  Level FlightAware Approximate
10:15PM 50.9258 -31.2178 84° East  Level FlightAware Approximate
10:16PM 50.9397 -31.0058 84° East  Level FlightAware Approximate
10:17PM 50.9531 -30.7938 84° East  Level FlightAware Approximate
10:18PM 50.9662 -30.5816 84° East  Level FlightAware Approximate
10:19PM 50.9789 -30.3694 84° East  Level FlightAware Approximate
10:20PM 50.9912 -30.1570 85° East  Level FlightAware Approximate
10:21PM 51.0024 -29.9444 86° East  Level FlightAware Approximate
10:22PM 51.0112 -29.7314 86° East  Level FlightAware Approximate
10:23PM 51.0196 -29.5184 86° East  Level FlightAware Approximate
10:24PM 51.0276 -29.3053 86° East  Level FlightAware Approximate
10:25PM 51.0353 -29.0922 87° East  Level FlightAware Approximate
10:26PM 51.0426 -28.8790 87° East  Level FlightAware Approximate
10:27PM 51.0494 -28.6657 87° East  Level FlightAware Approximate
10:28PM 51.0559 -28.4523 87° East  Level FlightAware Approximate
10:29PM 51.0620 -28.2389 87° East  Level FlightAware Approximate
10:30PM 51.0677 -28.0255 87° East  Level FlightAware Approximate
10:31PM 51.0731 -27.8120 88° East  Level FlightAware Approximate
10:32PM 51.0780 -27.5984 88° East  Level FlightAware Approximate
10:33PM 51.0825 -27.3848 88° East  Level FlightAware Approximate
10:34PM 51.0867 -27.1712 88° East  Level FlightAware Approximate
10:35PM 51.0904 -26.9575 88° East  Level FlightAware Approximate
10:36PM 51.0938 -26.7438 88° East  Level FlightAware Approximate
10:37PM 51.0968 -26.5300 89° East  Level FlightAware Approximate
10:38PM 51.0994 -26.3163 89° East  Level FlightAware Approximate
10:39PM 51.1016 -26.1025 89° East  Level FlightAware Approximate
10:40PM 51.1034 -25.8887 89° East  Level FlightAware Approximate
10:41PM 51.1049 -25.6748 89° East  Level FlightAware Approximate
10:42PM 51.1059 -25.4610 89° East  Level FlightAware Approximate
10:43PM 51.1065 -25.2472 90° East  Level FlightAware Approximate
10:44PM 51.1068 -25.0333 90° East  Level FlightAware Approximate
10:45PM 51.1067 -24.8195 90° East  Level FlightAware Approximate
10:46PM 51.1061 -24.6056 90° East  Level FlightAware Approximate
10:47PM 51.1052 -24.3918 90° East  Level FlightAware Approximate
10:48PM 51.1039 -24.1779 90° East  Level FlightAware Approximate
10:49PM 51.1022 -23.9641 91° East  Level FlightAware Approximate
10:50PM 51.1002 -23.7503 91° East  Level FlightAware Approximate
10:51PM 51.0977 -23.5365 91° East  Level FlightAware Approximate
10:52PM 51.0948 -23.3228 91° East  Level FlightAware Approximate
10:53PM 51.0916 -23.1091 91° East  Level FlightAware Approximate
10:54PM 51.0879 -22.8954 91° East  Level FlightAware Approximate
10:55PM 51.0839 -22.6817 92° East  Level FlightAware Approximate
10:56PM 51.0795 -22.4681 92° East  Level FlightAware Approximate
10:57PM 51.0747 -22.2545 92° East  Level FlightAware Approximate
10:58PM 51.0695 -22.0410 92° East  Level FlightAware Approximate
10:59PM 51.0639 -21.8275 92° East  Level FlightAware Approximate
11:00PM 51.0579 -21.6141 92° East  Level FlightAware Approximate
11:01PM 51.0515 -21.4007 93° East  Level FlightAware Approximate
11:02PM 51.0448 -21.1874 93° East  Level FlightAware Approximate
11:03PM 51.0376 -20.9742 93° East  Level FlightAware Approximate
11:04PM 51.0301 -20.7610 93° East  Level FlightAware Approximate
11:05PM 51.0222 -20.5479 93° East  Level FlightAware Approximate
11:06PM 51.0139 -20.3349 93° East  Level FlightAware Approximate
11:07PM 51.0051 -20.1219 94° East  Level FlightAware Approximate
11:08PM 51.0112 -19.9106 79° East  Level FlightAware Approximate
11:09PM 51.0372 -19.7011 79° East  Level FlightAware Approximate
11:10PM 51.0628 -19.4914 79° East  Level FlightAware Approximate
11:11PM 51.0880 -19.2815 79° East  Level FlightAware Approximate
11:12PM 51.1128 -19.0714 79° East  Level FlightAware Approximate
11:13PM 51.1372 -18.8611 79° East  Level FlightAware Approximate
11:14PM 51.1618 -18.6506 79° East  Level FlightAware Approximate
11:15PM 51.1865 -18.4401 79° East  Level FlightAware Approximate
11:16PM 51.2108 -18.2294 79° East  Level FlightAware Approximate
11:17PM 51.2347 -18.0184 80° East  Level FlightAware Approximate
11:18PM 51.2583 -17.8072 80° East  Level FlightAware Approximate
11:19PM 51.2814 -17.5959 80° East  Level FlightAware Approximate
11:20PM 51.3042 -17.3843 80° East  Level FlightAware Approximate
11:21PM 51.3266 -17.1724 80° East  Level FlightAware Approximate
11:22PM 51.3487 -16.9604 80° East  Level FlightAware Approximate
11:23PM 51.3703 -16.7482 81° East  Level FlightAware Approximate
11:24PM 51.3916 -16.5358 81° East  Level FlightAware Approximate
11:25PM 51.4124 -16.3232 81° East  Level FlightAware Approximate
11:26PM 51.4329 -16.1104 81° East  Level FlightAware Approximate
11:27PM 51.4530 -15.8974 81° East  Level FlightAware Approximate
11:28PM 51.4728 -15.6842 81° East  Level FlightAware Approximate
11:29PM 51.4921 -15.4709 82° East  Level FlightAware Approximate
11:30PM 51.5110 -15.2573 82° East  Level FlightAware Approximate
11:31PM 51.5296 -15.0436 82° East  Level FlightAware Approximate
11:32PM 51.5478 -14.8297 82° East  Level FlightAware Approximate
11:33PM 51.5655 -14.6157 82° East  Level FlightAware Approximate
11:34PM 51.5829 -14.4015 82° East  Level FlightAware Approximate
11:35PM 51.5999 -14.1871 83° East  Level FlightAware Approximate
11:36PM 51.6165 -13.9725 83° East  Level FlightAware Approximate
11:37PM 51.6328 -13.7578 83° East  Level FlightAware Approximate
11:38PM 51.6486 -13.5430 83° East  Level FlightAware Approximate
11:39PM 51.6640 -13.3280 83° East  Level FlightAware Approximate
11:40PM 51.6790 -13.1128 83° East  Level FlightAware Approximate
11:41PM 51.6937 -12.8976 84° East  Level FlightAware Approximate
11:42PM 51.7079 -12.6821 84° East  Level FlightAware Approximate
11:43PM 51.7218 -12.4666 84° East  Level FlightAware Approximate
11:44PM 51.7352 -12.2509 84° East  Level FlightAware Approximate
11:45PM 51.7483 -12.0351 84° East  Level FlightAware Approximate
11:46PM 51.7610 -11.8191 84° East  Level FlightAware Approximate
11:47PM 51.7733 -11.6031 85° East  Level FlightAware Approximate
11:48PM 51.7851 -11.3869 85° East  Level FlightAware Approximate
11:48PM 51.4650 -11.1470 85° East 502 578 37,000  Level FlightAware
11:48PM 51.4810 -10.9940 80° East 502 578 37,000  Level FlightAware
11:51PM 51.5350 -10.5420 79° East  Level Estimated
11:52PM 51.5598 -10.3298 79° East  Level Estimated
11:53PM 51.5841 -10.1174 79° East  Level Estimated
11:54PM 51.6081 -9.9047 80° East  Level Estimated
11:55PM 51.6316 -9.6918 80° East  Level Estimated
11:56PM 51.6548 -9.4787 80° East  Level Estimated
11:57PM 51.6776 -9.2653 80° East  Level Estimated
11:57PM 51.6690 -9.0830 80° East 506 582 37,000  Level FlightAware
11:57PM 51.6730 -8.9704 80° East 450 518 35,500 -2,700 Descending FlightAware UK
11:58PM 51.6789 -8.9031 82° East 452 520 35,500 3,060 Level FlightAware UK
11:58PM 51.6840 -8.9070 82° East 507 583 37,000  Climbing FlightAware
11:58PM 51.6886 -8.7911 82° East 452 520 35,500 -2,460 Descending FlightAware UK
11:58PM 51.6946 -8.7238 82° East 452 520 35,500 4,260 Level FlightAware UK
11:58PM 51.6970 -8.7580 82° East 507 583 37,000  Climbing FlightAware
11:59PM 51.7005 -8.6566 82° East 452 520 35,500 -2,760 Descending FlightAware UK
11:59PM 51.7062 -8.5892 82° East 452 520 35,500 3,000 Level FlightAware UK
11:59PM 51.7110 -8.5920 82° East 509 586 37,000  Climbing FlightAware
12:00AM 51.7156 -8.4767 82° East 452 520 35,500 -2,520 Descending FlightAware UK
12:00AM 51.7213 -8.4092 82° East 450 518 35,500  Level FlightAware UK
12:00AM 51.7268 -8.3414 82° East 452 520 35,500  Level FlightAware UK
12:00AM 51.7324 -8.2736 82° East 452 520 35,500 3,420 Level FlightAware UK
12:01AM 51.7370 -8.2960 82° East 512 589 37,000  Climbing FlightAware
12:01AM 51.7400 -8.1823 82° East 452 520 35,500 -2,700 Descending FlightAware UK
12:01AM 51.7456 -8.1144 82° East 450 518 35,500 3,720 Level FlightAware UK
12:01AM 51.7490 -8.1460 82° East 513 590 37,000  Climbing FlightAware
12:02AM 51.7529 -8.0236 82° East 452 520 35,500 -2,520 Descending FlightAware UK
12:02AM 51.7583 -7.9554 83° East 454 522 35,500  Level FlightAware UK
12:02AM 51.7636 -7.8871 83° East 452 520 35,500  Level FlightAware UK
12:02AM 51.7688 -7.8187 83° East 452 520 35,500 4,260 Level FlightAware UK
12:02AM 51.7710 -7.8670 83° East 515 593 37,000  Climbing FlightAware
12:03AM 51.7741 -7.7504 83° East 452 520 35,500 -2,760 Descending FlightAware UK
12:03AM 51.7794 -7.6820 83° East 452 520 35,500  Level FlightAware UK
12:03AM 51.7849 -7.6136 83° East 452 520 35,500  Level FlightAware UK
12:04AM 51.7901 -7.5451 83° East 452 520 35,500  Level FlightAware UK
12:04AM 51.7952 -7.4765 83° East 452 520 35,500  Level FlightAware UK
12:04AM 51.8003 -7.4072 83° East 450 518 35,500 3,900 Level FlightAware UK
12:04AM 51.8050 -7.4390 83° East 516 594 37,000  Climbing FlightAware
12:05AM 51.8067 -7.3157 83° East 450 518 35,500 -2,460 Descending FlightAware UK
12:05AM 51.8121 -7.2470 83° East 450 518 35,500 4,260 Level FlightAware UK
12:05AM 51.8160 -7.2820 83° East 516 594 37,000  Climbing FlightAware
12:05AM 51.8173 -7.1783 83° East 450 518 35,500 -2,760 Descending FlightAware UK
12:06AM 51.8221 -7.1094 84° East 450 518 35,500  Level FlightAware UK
12:06AM 51.8270 -7.0405 83° East 448 516 35,500 4,080 Level FlightAware UK
12:06AM 51.8310 -7.0790 83° East 518 596 37,000  Climbing FlightAware
12:06AM 51.8334 -6.9484 83° East 452 520 35,500 -2,400 Descending FlightAware UK
12:07AM 51.8381 -6.8792 84° East 450 518 35,500 3,600 Level FlightAware UK
12:07AM 51.8440 -6.9070 84° East 519 597 37,000  Climbing FlightAware
12:07AM 51.8446 -6.7869 84° East 452 520 35,500 -2,580 Descending FlightAware UK
12:07AM 51.8493 -6.7175 84° East 454 522 35,500  Level FlightAware UK
12:08AM 51.8541 -6.6480 84° East 454 522 35,500  Level FlightAware UK
12:08AM 51.8588 -6.5778 84° East 454 522 35,500 4,080 Level FlightAware UK
12:08AM 51.8630 -6.6270 84° East 521 600 37,000  Climbing FlightAware
12:08AM 51.8652 -6.4852 84° East 456 525 35,500 -2,400 Descending FlightAware UK
12:09AM 51.8698 -6.4157 84° East 454 522 35,500  Level FlightAware UK
12:09AM 51.8742 -6.3463 84° East 452 520 35,500  Level FlightAware UK
12:09AM 51.8785 -6.2769 84° East 452 520 35,500 4,680 Level FlightAware UK
12:09AM 51.8840 -6.3270 84° East 521 600 37,000  Climbing FlightAware
12:09AM 51.8829 -6.2074 84° East 454 522 35,500 -2,580 Descending FlightAware UK
12:10AM 51.8872 -6.1370 84° East 454 522 35,500  Level FlightAware UK
12:10AM 51.8917 -6.0666 84° East 454 522 35,500 3,600 Level FlightAware UK
12:10AM 51.8990 -6.0830 84° East 524 603 37,000  Climbing FlightAware
12:10AM 51.8976 -5.9733 84° East 454 522 35,500 -2,520 Descending FlightAware UK
12:11AM 51.9019 -5.9023 84° East 456 525 35,500  Level FlightAware UK
12:11AM 51.9062 -5.8329 84° East 458 527 35,500 3,720 Level FlightAware UK
12:11AM 51.9140 -5.8570 84° East 524 603 37,000  Climbing FlightAware
12:11AM 51.9119 -5.7386 84° East 458 527 35,500  Descending FlightAware UK
12:12AM 51.9210 -5.7370 84° East 525 604 37,000  Climbing FlightAware
12:12AM 51.9160 -5.6693 84° East 458 527 35,500 -5,040 Descending FlightAware UK
12:12AM 51.9189 -5.6218 84° East 456 525 35,500  Level FlightAware UK
12:12AM 51.9230 -5.5515 85° East 454 522 35,500 2,760 Level FlightAware UK
12:12AM 51.9330 -5.5420 85° East 526 605 37,000  Climbing FlightAware
12:13AM 51.9298 -5.4359 85° East 456 525 35,500 -2,700 Descending FlightAware UK
12:13AM 51.9338 -5.3649 85° East 454 522 35,500 3,060 Level FlightAware UK
12:13AM 51.9430 -5.3760 85° East 527 606 37,000  Climbing FlightAware
12:14AM 51.9403 -5.2473 85° East 456 525 35,500  Descending FlightAware UK
12:14AM 51.9510 -5.2250 85° East 528 608 37,000  Climbing FlightAware
12:14AM 51.9483 -5.1061 85° East 458 527 35,500 -2,400 Descending FlightAware UK
12:14AM 51.9521 -5.0347 85° East 458 527 35,500 4,500 Level FlightAware UK
12:14AM 51.9600 -5.0730 85° East 528 608 37,000  Climbing FlightAware
12:15AM 51.9560 -4.9638 85° East 458 527 35,500 -2,700 Descending FlightAware UK
12:15AM 51.9598 -4.8938 85° East 458 527 35,500 3,720 Level FlightAware UK
12:15AM 51.9680 -4.9210 85° East 526 605 37,000  Climbing FlightAware
12:15AM 51.9649 -4.7986 85° East 458 527 35,500 -2,520 Descending FlightAware UK
12:16AM 51.9684 -4.7281 85° East 458 527 35,500 3,300 Level FlightAware UK
12:16AM 51.9780 -4.7400 85° East 526 605 37,000  Climbing FlightAware
12:16AM 51.9730 -4.6342 85° East 456 525 35,500 -3,300 Descending FlightAware UK
12:16AM 51.9763 -4.5630 86° East 452 520 35,200 2,640 Descending FlightAware UK
12:17AM 51.9860 -4.5740 86° East 520 598 36,600 2,820 Climbing FlightAware
12:17AM 51.9904 -4.4979 85° East 518 596 36,300 -3,780 Descending FlightAware ADS-B
12:17AM 51.9844 -4.4017 85° East 444 511 34,400 -1,140 Descending FlightAware UK
12:17AM 51.9966 -4.3744 85° East 518 596 35,700 -1,020 Climbing FlightAware ADS-B
12:18AM 51.9899 -4.2853 85° East 440 506 33,900 -1,020 Descending FlightAware UK
12:18AM 52.0024 -4.2565 85° East 516 594 35,200 -840 Climbing FlightAware ADS-B
12:18AM 51.9954 -4.1700 85° East 438 504 33,500 -420 Descending FlightAware UK
12:18AM 52.0081 -4.1379 85° East 511 588 35,000  Climbing FlightAware ADS-B
12:19AM 52.0005 -4.0553 85° East 434 499 33,500  Descending FlightAware UK
12:19AM 52.0136 -4.0196 85° East 511 588 35,000  Climbing FlightAware ADS-B
12:19AM 52.0066 -3.9181 85° East 436 502 33,500  Descending FlightAware UK
12:19AM 52.0198 -3.8847 85° East 514 592 35,000  Climbing FlightAware ADS-B
12:20AM 52.0117 -3.8032 85° East 438 504 33,500  Descending FlightAware UK
12:20AM 52.0251 -3.7670 85° East 517 595 35,000  Climbing FlightAware ADS-B
12:20AM 52.0166 -3.6876 85° East 440 506 33,500  Descending FlightAware UK
12:20AM 52.0302 -3.6492 85° East 521 600 35,000  Climbing FlightAware ADS-B
12:21AM 52.0224 -3.5461 85° East 446 513 33,500  Descending FlightAware UK
12:21AM 52.0352 -3.5302 85° East 525 604 35,000  Climbing FlightAware ADS-B
12:21AM 52.0271 -3.4285 85° East 450 518 33,500  Descending FlightAware UK
12:22AM 52.0403 -3.4092 85° East 526 605 35,000  Climbing FlightAware ADS-B
12:22AM 52.0318 -3.3106 85° East 450 518 33,500  Descending FlightAware UK
12:22AM 52.0453 -3.2839 85° East 528 608 35,000  Climbing FlightAware ADS-B
12:22AM 52.0364 -3.1922 85° East 448 516 33,500  Descending FlightAware UK
12:23AM 52.0502 -3.1630 85° East 529 609 35,000 -240 Climbing FlightAware ADS-B
12:23AM 52.0408 -3.0736 85° East 450 518 33,400  Descending FlightAware UK
12:23AM 52.0549 -3.0401 85° East 527 606 35,000 180 Climbing FlightAware ADS-B
12:23AM 52.0451 -2.9552 85° East 446 513 33,500  Descending FlightAware UK
12:24AM 52.0596 -2.9179 85° East 527 606 35,000 -240 Climbing FlightAware ADS-B
12:24AM 52.0494 -2.8354 85° East 436 502 33,400  Descending FlightAware UK
12:24AM 52.0640 -2.7924 85° East 524 603 35,000  Climbing FlightAware ADS-B
12:24AM 52.0544 -2.6941 85° East 436 502 33,400  Descending FlightAware UK
12:25AM 52.0681 -2.6749 85° East 524 603 35,000 180 Climbing FlightAware ADS-B
12:25AM 52.0582 -2.5770 85° East 438 504 33,500  Descending FlightAware UK
12:25AM 52.0723 -2.5542 85° East 524 603 35,000  Climbing FlightAware ADS-B
12:25AM 52.0619 -2.4604 85° East 440 506 33,500  Descending FlightAware UK
12:26AM 52.0764 -2.4339 85° East 522 601 35,000  Climbing FlightAware ADS-B
12:26AM 52.0656 -2.3434 85° East 438 504 33,500  Descending FlightAware UK
12:26AM 52.0802 -2.3143 85° East 522 601 35,000  Climbing FlightAware ADS-B
12:26AM 52.0691 -2.2256 85° East 440 506 33,500  Descending FlightAware UK
12:27AM 52.0838 -2.1955 85° East 523 602 35,000  Climbing FlightAware ADS-B
12:27AM 52.0726 -2.1092 85° East 438 504 33,500  Descending FlightAware UK
12:27AM 52.0874 -2.0773 85° East 523 602 35,000  Climbing FlightAware ADS-B
12:27AM 52.0758 -1.9918 85° East 440 506 33,500  Descending FlightAware UK
12:28AM 52.0908 -1.9583 85° East 523 602 35,000  Climbing FlightAware ADS-B
12:28AM 52.0790 -1.8743 85° East 440 506 33,500  Descending FlightAware UK
12:28AM 52.0941 -1.8402 85° East 522 601 35,000  Climbing FlightAware ADS-B
12:28AM 52.0821 -1.7578 85° East 440 506 33,500  Descending FlightAware UK
12:29AM 52.0974 -1.7218 85° East 519 597 35,000  Climbing FlightAware ADS-B
12:29AM 52.0852 -1.6395 85° East 436 502 33,500  Descending FlightAware UK
12:29AM 52.1004 -1.6040 85° East 515 593 35,000  Climbing FlightAware ADS-B
12:29AM 52.0880 -1.5228 85° East 428 493 33,500  Descending FlightAware UK
12:30AM 52.1032 -1.4869 85° East 512 589 35,000  Climbing FlightAware ADS-B
12:30AM 52.0905 -1.4080 85° East 428 493 33,500  Descending FlightAware UK
12:30AM 52.1061 -1.3678 85° East 513 590 35,000  Climbing FlightAware ADS-B
12:31AM 52.0935 -1.2696 85° East 424 488 33,500  Descending FlightAware UK
12:31AM 52.1087 -1.2508 85° East 515 593 35,000  Climbing FlightAware ADS-B
12:31AM 52.0958 -1.1539 85° East 424 488 33,500  Descending FlightAware UK
12:31AM 52.1112 -1.1337 85° East 519 597 35,000  Climbing FlightAware ADS-B
12:32AM 52.0982 -1.0364 85° East 424 488 33,500  Descending FlightAware UK
12:32AM 52.1136 -1.0159 85° East 522 601 35,000  Climbing FlightAware ADS-B
12:32AM 52.1005 -0.9184 85° East 426 490 33,500  Descending FlightAware UK
12:32AM 52.1160 -0.8965 85° East 525 604 35,000  Climbing FlightAware ADS-B
12:33AM 52.1026 -0.8002 85° East 430 495 33,500  Descending FlightAware UK
12:33AM 52.1183 -0.7771 85° East 527 606 35,000  Climbing FlightAware ADS-B
12:33AM 52.1047 -0.6817 85° East 432 497 33,500  Descending FlightAware UK
12:33AM 52.1205 -0.6546 85° East 528 608 35,000  Climbing FlightAware ADS-B
12:34AM 52.1067 -0.5623 85° East 432 497 33,500  Descending FlightAware UK
12:34AM 52.1224 -0.5350 85° East 529 609 35,000  Climbing FlightAware ADS-B
12:34AM 52.1085 -0.4433 85° East 436 502 33,500  Descending FlightAware UK
12:34AM 52.1243 -0.4117 85° East 532 612 35,000  Climbing FlightAware ADS-B
12:35AM 52.1101 -0.3237 85° East 440 506 33,500  Descending FlightAware UK
12:35AM 52.1260 -0.2896 85° East 531 611 35,000  Climbing FlightAware ADS-B
12:35AM 52.1116 -0.2032 85° East 442 509 33,500  Descending FlightAware UK
12:35AM 52.1277 -0.1679 85° East 530 610 35,000  Climbing FlightAware ADS-B
12:36AM 52.1130 -0.0838 85° East 442 509 33,500  Descending FlightAware UK
12:36AM 52.1291 -0.0481 85° East 528 608 35,000  Climbing FlightAware ADS-B
12:36AM 52.1144 0.0352 85° East 444 511 33,500  Descending FlightAware UK
12:36AM 52.1304 0.0716 85° East 527 606 35,000  Climbing FlightAware ADS-B
12:37AM 52.1156 0.1546 85° East 444 511 33,500  Descending FlightAware UK
12:37AM 52.1317 0.1923 85° East 524 603 35,000  Climbing FlightAware ADS-B
12:37AM 52.1167 0.2731 85° East 442 509 33,500  Descending FlightAware UK
12:37AM 52.1327 0.3105 85° East 521 600 35,000  Climbing FlightAware ADS-B
12:38AM 52.1178 0.3890 85° East 440 506 33,500  Descending FlightAware UK
12:38AM 52.1337 0.4292 85° East 518 596 35,000  Climbing FlightAware ADS-B
12:38AM 52.1187 0.5307 85° East 440 506 33,500  Descending FlightAware UK
12:38AM 52.1344 0.5469 85° East 515 593 35,000  Climbing FlightAware ADS-B
12:39AM 52.1192 0.6461 85° East 436 502 33,500  Descending FlightAware UK
12:39AM 52.1351 0.6633 85° East 512 589 35,000  Climbing FlightAware ADS-B
12:39AM 52.1198 0.7610 85° East 434 499 33,500  Descending FlightAware UK
12:39AM 52.1358 0.7805 85° East 509 586 35,000  Climbing FlightAware ADS-B
12:40AM 52.1202 0.8757 85° East 426 490 33,500  Descending FlightAware UK
12:40AM 52.1361 0.8957 85° East 507 583 35,000  Climbing FlightAware ADS-B
12:40AM 52.1205 0.9908 85° East 424 488 33,500  Descending FlightAware UK
12:40AM 52.1365 1.0287 85° East 507 583 35,000  Climbing FlightAware ADS-B
12:41AM 52.1206 1.1276 85° East 424 488 33,500 -2,400 Descending FlightAware UK
12:41AM 52.1207 1.1968 90° East 428 493 33,500  Level FlightAware UK
12:41AM 52.1208 1.2653 90° East 426 490 33,500 4,980 Level FlightAware UK
12:41AM 52.1368 1.2426 90° East 507 583 35,000 -720 Climbing FlightAware ADS-B
12:42AM 52.1208 1.3338 90° East 426 490 33,300 -3,540 Descending FlightAware UK
12:42AM 52.1208 1.4023 90° East 424 488 32,900 -2,040 Descending FlightAware UK
12:42AM 52.1206 1.4714 90° East 428 493 32,100 1,440 Descending FlightAware UK
12:42AM 52.1370 1.4600 90° East 509 586 33,500 -2,280 Climbing FlightAware
12:43AM 52.1203 1.5620 90° East 432 497 31,200 -5,340 Descending FlightAware UK
12:43AM 52.1201 1.6317 90° East 436 502 30,400 1,800 Descending FlightAware UK
12:43AM 52.1360 1.6170 90° East 514 592 31,900 -2,400 Climbing FlightAware
12:43AM 52.1198 1.7258 90° East 440 506 29,400 -5,220 Descending FlightAware UK
12:44AM 52.1194 1.7950 90° East 444 511 28,700 2,700 Descending FlightAware UK
12:44AM 52.1360 1.7660 90° East 517 595 30,300 -2,700 Climbing FlightAware
12:44AM 52.1191 1.8648 90° East 444 511 27,900 -6,000 Descending FlightAware UK
12:44AM 52.1188 1.9351 90° East 446 513 27,000 360 Descending FlightAware UK
12:44AM 52.1350 1.9510 90° East 522 601 28,100 -2,820 Climbing FlightAware
12:45AM 52.1181 2.0528 90° East 446 513 25,600 -5,220 Descending FlightAware UK
12:45AM 52.1175 2.1243 91° East 440 506 24,900 2,160 Descending FlightAware UK
12:45AM 52.1340 2.1080 91° East 519 597 26,400 -2,340 Climbing FlightAware
12:45AM 52.1171 2.1946 91° East 440 506 24,200 -4,920 Descending FlightAware UK
12:46AM 52.1166 2.2646 91° East 432 497 23,700 1,920 Descending FlightAware UK
12:46AM 52.1330 2.2630 91° East 511 588 25,000 -1,860 Climbing FlightAware
12:46AM 52.1157 2.3550 91° East 426 490 23,000 -3,960 Descending FlightAware UK
12:46AM 52.1155 2.4232 90° East 414 476 22,700 -840 Descending FlightAware UK
12:47AM 52.1238 2.4883 78° East 404 465 22,500 3,120 Descending FlightAware UK
12:47AM 52.1420 2.4750 78° East 496 571 24,000 -960 Climbing FlightAware
12:47AM 52.1453 2.5720 78° East 390 449 22,100 -4,140 Descending FlightAware UK
12:47AM 52.1662 2.6290 59° Northeast 386 444 21,600 2,580 Descending FlightAware UK
12:47AM 52.1840 2.6120 59° Northeast 486 559 23,100 -1,500 Climbing FlightAware
12:48AM 52.1926 2.7051 59° Northeast 384 442 21,000 -4,260 Descending FlightAware UK
12:48AM 52.2127 2.7608 59° Northeast 378 435 20,500 2,040 Descending FlightAware UK
12:48AM 52.2320 2.7460 59° Northeast 478 550 21,900 -1,800 Climbing FlightAware
12:48AM 52.2399 2.8360 59° Northeast 372 428 19,800 -4,800 Descending FlightAware UK
12:49AM 52.2636 2.8877 53° Northeast 370 426 19,200 2,460 Descending FlightAware UK
12:49AM 52.2830 2.8700 53° Northeast 476 548 20,800 -1,500 Climbing FlightAware
12:49AM 52.2987 2.9527 53° Northeast 370 426 18,600 -4,500 Descending FlightAware UK
12:49AM 52.3241 3.0014 50° Northeast 368 423 18,100 3,000 Descending FlightAware UK
12:50AM 52.3400 2.9760 50° Northeast 467 537 19,700 -1,500 Climbing FlightAware
12:50AM 52.3578 3.0640 50° Northeast 366 421 17,500 -4,440 Descending FlightAware UK
12:50AM 52.3835 3.1103 48° Northeast 366 421 16,900 2,160 Descending FlightAware UK
12:50AM 52.4020 3.0900 48° Northeast 458 527 18,400 -1,500 Climbing FlightAware
12:51AM 52.4170 3.1708 48° Northeast 364 419 16,300 -4,500 Descending FlightAware UK
12:51AM 52.4423 3.2159 47° Northeast 358 412 15,800 2,820 Descending FlightAware UK
12:51AM 52.4570 3.1880 47° Northeast 447 514 17,400 -1,020 Climbing FlightAware
12:51AM 52.4762 3.2757 47° Northeast 352 405 15,400 -3,900 Descending FlightAware UK
12:52AM 52.5004 3.3182 47° Northeast 338 389 15,000 2,520 Descending FlightAware UK
12:52AM 52.5200 3.3000 47° Northeast 417 480 16,500 -1,260 Climbing FlightAware
12:52AM 52.5314 3.3729 47° Northeast 320 368 14,500 -4,440 Descending FlightAware UK
12:52AM 52.5542 3.4131 47° Northeast 314 361 14,000 2,700 Descending FlightAware UK
12:52AM 52.5710 3.3900 47° Northeast 401 461 15,600 -1,500 Climbing FlightAware
12:53AM 52.5843 3.4667 47° Northeast 312 359 13,400 -4,380 Descending FlightAware UK
12:53AM 52.6072 3.5076 47° Northeast 312 359 13,000 3,000 Descending FlightAware UK
12:53AM 52.6230 3.4810 47° Northeast 400 460 14,500 -1,500 Climbing FlightAware
12:53AM 52.6367 3.5616 47° Northeast 312 359 12,400 -3,840 Descending FlightAware UK
12:54AM 52.6506 3.6100 65° Northeast 312 359 12,100 2,880 Descending FlightAware UK
12:54AM 52.6670 3.5850 65° Northeast 386 444 13,600 -1,260 Climbing FlightAware
12:54AM 52.6619 3.6767 65° Northeast 306 352 11,600 -1,200 Descending FlightAware UK
12:54AM 52.6770 3.6630 65° Northeast 361 415 13,100 -1,020 Climbing FlightAware
12:54AM 52.6575 3.7415 65° Northeast 300 345 11,200 -4,080 Descending FlightAware UK
12:55AM 52.6496 3.7846 107° East 296 341 10,800 2,040 Descending FlightAware UK
12:55AM 52.6620 3.7710 107° East 318 366 12,200 -1,560 Climbing FlightAware
12:55AM 52.6252 3.8435 107° East 296 341 10,000 -4,140 Descending FlightAware UK
12:56AM 52.6077 3.8702 137° Southeast 292 336 9,600 3,600 Descending FlightAware UK
12:56AM 52.6260 3.8420 137° Southeast 285 328 11,200 -1,800 Climbing FlightAware
12:56AM 52.5894 3.8924 137° Southeast 292 336 9,100 -4,440 Descending FlightAware UK
12:56AM 52.5705 3.9174 141° Southeast 1 1 8,700 2,640 Descending FlightAware UK
12:56AM 52.5860 3.8960 141° Southeast 296 341 10,200 3,420 Climbing FlightAware
12:57AM 52.5740 3.9260 141° Southeast 307 353 9,900 -6,720 Descending FlightAware
12:57AM 52.5569 3.9677 141° Southeast 1 1 8,200 -7,200 Descending FlightAware UK
12:57AM 52.5514 3.9947 141° Southeast 1 1 8,100 3,780 Descending FlightAware UK
12:57AM 52.5670 3.9830 91° East 316 364 9,600 -720 Climbing FlightAware
12:57AM 52.5509 4.0386 91° East 1 1 7,900 -5,400 Descending FlightAware UK
12:57AM 52.5494 4.0664 91° East 1 1 7,800 4,920 Descending FlightAware UK
12:57AM 52.5660 4.0420 91° East 302 348 9,300 -1,260 Climbing FlightAware
12:58AM 52.5490 4.1203 91° East 1 1 7,300 -1,200 Descending FlightAware UK
12:58AM 52.5660 4.1190 89° East 288 331 8,600 -1,380 Climbing FlightAware
12:58AM 52.5493 4.1599 89° East 1 1 6,900 -6,600 Descending FlightAware UK
12:58AM 52.5490 4.1992 89° East 1 1 6,400 2,580 Descending FlightAware UK
12:58AM 52.5650 4.1720 89° East 283 326 7,900 -1,020 Climbing FlightAware
12:59AM 52.5490 4.2496 89° East 1 1 6,000 -840 Descending FlightAware UK
12:59AM 52.5650 4.2360 89° East 256 295 7,500 3,000 Climbing FlightAware
12:59AM 52.5640 4.2640 89° East 246 283 7,300 -6,000 Descending FlightAware
12:59AM 52.5488 4.3060 89° East 1 1 5,600 -7,500 Descending FlightAware UK
12:59AM 52.5484 4.3282 89° East 1 1 5,300 3,120 Descending FlightAware UK
01:00AM 52.5640 4.3090 89° East 235 270 6,700 -1,500 Climbing FlightAware
01:00AM 52.5467 4.3703 89° East 1 1 4,700 -1,200 Descending FlightAware UK
01:00AM 52.5630 4.3630 91° East 232 267 6,100 -1,020 Climbing FlightAware
01:00AM 52.5465 4.4023 91° East 1 1 4,400 -8,040 Descending FlightAware UK
01:00AM 52.5463 4.4235 91° East 1 1 4,100 2,400 Descending FlightAware UK
01:01AM 52.5620 4.4140 92° East 233 268 5,500 -1,020 Climbing FlightAware
01:01AM 52.5455 4.4553 92° East 1 1 3,800 -8,040 Descending FlightAware UK
01:01AM 52.5458 4.4768 92° East 1 1 3,500 2,220 Descending FlightAware UK
01:01AM 52.5620 4.4670 90° East 235 270 4,800 -1,380 Climbing FlightAware
01:01AM 52.5458 4.5090 90° East 1 1 3,100 -7,620 Descending FlightAware UK
01:01AM 52.5456 4.5306 90° East 1 1 2,900 3,240 Descending FlightAware UK
01:01AM 52.5610 4.5120 90° East 236 272 4,300 2,640 Climbing FlightAware
01:02AM 52.5610 4.5410 90° East 236 272 4,000 -1,080 Descending FlightAware
01:02AM 52.5600 4.5930 92° East 232 267 3,500 -1,140 Descending FlightAware
01:03AM 52.5590 4.6380 92° East 231 266 3,000 -1,380 Descending FlightAware
01:03AM 52.5560 4.6620 102° East 219 252 2,600 -1,200 Descending FlightAware
01:03AM 52.5470 4.6780 133° Southeast 198 228 2,400 -720 Descending FlightAware
01:04AM 52.5230 4.6960 155° Southeast 161 185 2,100 -300 Descending FlightAware
01:04AM 52.4960 4.6950 181° South 145 167 2,100  Level FlightAware
01:05AM 52.4860 4.6940 183° South 145 167 2,100 -300 Level FlightAware
01:05AM 52.4660 4.6920 183° South 145 167 1,900 -600 Descending FlightAware
01:05AM 52.4500 4.6900 184° South 129 148 1,600 -660 Descending FlightAware
01:06AM 52.4360 4.6890 182° South 108 124 1,300 -660 Descending FlightAware
01:06AM 52.4220 4.6880 182° South 106 122 1,000 -600 Descending FlightAware
01:07AM 52.4150 4.6870 185° South 110 127 900 -540 Descending FlightAware
01:07AM 52.4000 4.6850 185° South 111 128 600 -660 Descending FlightAware
01:08AM 52.3870 4.6840 183° South 115 132 300 -720 Descending FlightAware